Time;durP1;ratioP1;P1;durP2;ratioP2;P2;SDS_P1;SDS_P2;PMS_P1;PMS_P2;Temp;Humidity;BMP_temperature;BMP_pressure;BME280_temperature;BME280_humidity;BME280_pressure;Samples;Min_cycle;Max_cycle;Signal;HPM_P1;HPM_P2
2023/08/01 00:01:33;;;;;;;24.67;18.15;;;;;;;16.79;100.00;98587.00;5139983;28;20147;-65
2023/08/01 00:03:59;;;;;;;20.60;16.00;;;;;;;16.83;100.00;98593.28;5139669;28;20097;-64
2023/08/01 00:06:25;;;;;;;21.50;10.65;;;;;;;16.82;100.00;98588.94;5139843;27;20055;-63
2023/08/01 00:08:51;;;;;;;17.73;9.85;;;;;;;16.91;100.00;98600.25;5139874;28;20067;-62
2023/08/01 00:11:17;;;;;;;24.90;10.65;;;;;;;16.97;100.00;98603.34;5139900;28;20365;-62
2023/08/01 00:13:43;;;;;;;17.67;11.15;;;;;;;16.98;100.00;98612.41;5139546;28;20047;-64
2023/08/01 00:16:10;;;;;;;18.33;11.25;;;;;;;16.90;100.00;98603.47;5139843;28;20158;-66
2023/08/01 00:18:36;;;;;;;28.50;20.10;;;;;;;16.97;100.00;98605.31;5139529;28;20051;-62
2023/08/01 00:21:02;;;;;;;20.73;17.63;;;;;;;16.96;100.00;98601.78;5139879;28;20174;-66
2023/08/01 00:23:28;;;;;;;18.17;10.80;;;;;;;16.98;100.00;98612.41;5139372;28;20389;-63
2023/08/01 00:25:55;;;;;;;27.48;21.17;;;;;;;16.92;100.00;98607.34;5139795;28;20362;-65
2023/08/01 00:28:22;;;;;;;24.90;11.48;;;;;;;16.90;100.00;98612.53;5139248;28;20068;-65
2023/08/01 00:30:48;;;;;;;27.05;11.50;;;;;;;16.91;100.00;98608.56;5139489;28;20051;-62
2023/08/01 00:33:14;;;;;;;19.35;11.68;;;;;;;16.86;100.00;98597.97;5139484;28;20057;-64
2023/08/01 00:35:40;;;;;;;25.13;12.18;;;;;;;16.92;100.00;98607.34;5138917;27;20431;-62
2023/08/01 00:38:06;;;;;;;22.92;11.98;;;;;;;16.92;100.00;98604.56;5138671;27;20047;-62
2023/08/01 00:40:32;;;;;;;22.70;12.55;;;;;;;16.85;100.00;98599.16;5139316;28;20146;-63
2023/08/01 00:42:59;;;;;;;21.77;18.45;;;;;;;16.82;100.00;98602.00;5139303;28;20145;-66
2023/08/01 00:45:25;;;;;;;20.88;13.13;;;;;;;16.85;100.00;98598.38;5139156;28;20138;-64
2023/08/01 00:47:52;;;;;;;15.45;10.50;;;;;;;16.87;100.00;98598.75;5139451;28;20051;-65
2023/08/01 00:50:20;;;;;;;23.40;14.85;;;;;;;16.87;100.00;98601.53;5139009;28;20084;-61
2023/08/01 00:52:46;;;;;;;19.05;12.23;;;;;;;16.82;100.00;98600.00;5139388;28;20400;-64
2023/08/01 00:55:12;;;;;;;29.63;13.38;;;;;;;16.82;100.00;98579.84;5138885;28;20151;-62
2023/08/01 00:57:38;;;;;;;26.90;14.00;;;;;;;16.82;100.00;98577.84;5139190;28;20097;-65
2023/08/01 01:00:06;;;;;;;22.73;13.07;;;;;;;16.82;100.00;98588.16;5139014;28;20130;-62
2023/08/01 01:02:32;;;;;;;28.38;20.80;;;;;;;16.76;100.00;98584.28;5139003;28;20051;-64
2023/08/01 01:04:58;;;;;;;22.35;13.55;;;;;;;16.77;100.00;98586.66;5138865;28;20054;-63
2023/08/01 01:07:26;;;;;;;25.90;21.77;;;;;;;16.73;100.00;98583.13;5138809;27;20058;-62
2023/08/01 01:09:52;;;;;;;24.30;21.00;;;;;;;16.74;100.00;98581.16;5139051;28;20126;-62
2023/08/01 01:12:17;;;;;;;22.42;13.50;;;;;;;16.71;100.00;98585.53;5138717;28;20197;-62
2023/08/01 01:14:43;;;;;;;24.05;15.35;;;;;;;16.70;100.00;98592.28;5138919;28;20054;-63
2023/08/01 01:17:10;;;;;;;30.63;17.05;;;;;;;16.69;100.00;98593.47;5138510;28;20093;-64
2023/08/01 01:19:36;;;;;;;28.75;16.60;;;;;;;16.68;100.00;98598.22;5138771;28;20138;-64
2023/08/01 01:22:04;;;;;;;36.40;27.67;;;;;;;16.61;100.00;98578.19;5138448;28;20392;-65
2023/08/01 01:24:32;;;;;;;31.75;25.05;;;;;;;16.46;100.00;98581.19;5138842;28;20047;-63
2023/08/01 01:27:00;;;;;;;35.75;27.77;;;;;;;16.50;100.00;98575.59;5138331;28;20133;-64
2023/08/01 01:29:26;;;;;;;32.90;18.73;;;;;;;16.30;100.00;98564.44;5138508;28;20146;-62
2023/08/01 01:31:53;;;;;;;28.55;17.88;;;;;;;16.36;100.00;98564.72;5138558;28;20138;-63
2023/08/01 01:34:19;;;;;;;37.65;16.58;;;;;;;16.45;100.00;98557.47;5138183;28;20138;-63
2023/08/01 01:36:45;;;;;;;31.65;26.35;;;;;;;16.44;100.00;98563.44;5138402;27;20490;-64
2023/08/01 01:39:12;;;;;;;31.70;17.13;;;;;;;16.44;100.00;98569.75;5138330;28;20082;-64
2023/08/01 01:41:37;;;;;;;37.67;18.65;;;;;;;16.41;100.00;98565.03;5138452;28;20138;-65
2023/08/01 01:44:04;;;;;;;39.22;30.80;;;;;;;16.37;100.00;98553.25;5138100;28;20175;-64
2023/08/01 01:46:30;;;;;;;36.22;27.55;;;;;;;16.42;100.00;98550.00;5138307;28;20151;-63
2023/08/01 01:48:57;;;;;;;33.03;26.98;;;;;;;16.40;100.00;98546.88;5136869;27;20063;-64
2023/08/01 01:51:25;;;;;;;41.33;33.00;;;;;;;16.43;100.00;98546.06;5138368;28;20051;-65
2023/08/01 01:53:51;;;;;;;26.90;18.15;;;;;;;16.43;100.00;98540.53;5137910;28;20057;-65
2023/08/01 01:56:17;;;;;;;24.55;17.00;;;;;;;16.41;100.00;98545.69;5138259;28;20086;-65
2023/08/01 01:58:43;;;;;;;31.50;17.23;;;;;;;16.27;100.00;98523.78;5137824;28;20107;-64
2023/08/01 02:01:09;;;;;;;37.65;18.90;;;;;;;16.48;100.00;98522.66;5137772;28;20047;-62
2023/08/01 02:03:36;;;;;;;30.23;17.60;;;;;;;16.44;100.00;98533.00;5137941;28;20142;-62
2023/08/01 02:06:03;;;;;;;31.50;16.92;;;;;;;16.39;100.00;98537.03;5137870;28;20055;-63
2023/08/01 02:08:28;;;;;;;46.15;31.42;;;;;;;16.35;100.00;98549.34;5138009;27;20133;-62
2023/08/01 02:10:55;;;;;;;23.77;15.20;;;;;;;16.26;100.00;98547.13;5137743;28;20142;-63
2023/08/01 02:13:21;;;;;;;32.50;15.30;;;;;;;16.26;100.00;98546.31;5137906;28;20060;-65
2023/08/01 02:15:47;;;;;;;26.58;15.57;;;;;;;16.26;100.00;98549.06;5137559;28;20051;-65
2023/08/01 02:18:13;;;;;;;30.38;15.52;;;;;;;16.26;100.00;98549.06;5137928;28;20093;-65
2023/08/01 02:20:39;;;;;;;23.23;13.98;;;;;;;16.21;100.00;98548.34;5137474;28;20082;-65
2023/08/01 02:23:05;;;;;;;23.00;13.68;;;;;;;16.18;100.00;98556.69;5137959;28;20142;-64
2023/08/01 02:25:31;;;;;;;18.88;13.07;;;;;;;16.16;100.00;98550.78;5137457;28;20059;-63
2023/08/01 02:27:57;;;;;;;32.35;24.48;;;;;;;16.14;100.00;98555.97;5137554;28;20053;-62
2023/08/01 02:30:23;;;;;;;27.52;20.33;;;;;;;16.11;100.00;98559.56;5137649;28;20365;-62
2023/08/01 02:32:49;;;;;;;20.50;13.23;;;;;;;16.16;100.00;98553.56;5137526;28;20339;-62
2023/08/01 02:35:15;;;;;;;27.60;13.07;;;;;;;16.09;100.00;98557.22;5137465;28;20138;-62
2023/08/01 02:37:41;;;;;;;24.75;13.48;;;;;;;16.13;100.00;98565.47;5137298;27;20317;-65
2023/08/01 02:40:09;;;;;;;24.58;13.85;;;;;;;16.09;100.00;98567.50;5137470;28;20188;-65
2023/08/01 02:42:35;;;;;;;22.58;13.40;;;;;;;16.04;100.00;98567.97;5137504;28;20513;-65
2023/08/01 02:45:01;;;;;;;27.50;12.63;;;;;;;16.02;100.00;98570.34;5137619;28;20051;-64
2023/08/01 02:47:27;;;;;;;24.17;12.18;;;;;;;16.04;100.00;98565.97;5137190;28;20078;-65
2023/08/01 02:49:53;;;;;;;21.80;18.08;;;;;;;15.97;100.00;98574.38;5137594;28;20146;-64
2023/08/01 02:52:19;;;;;;;18.90;11.40;;;;;;;15.98;100.00;98573.16;5137021;28;20044;-65
2023/08/01 02:54:45;;;;;;;28.27;18.15;;;;;;;15.93;100.00;98581.94;5137466;28;20142;-65
2023/08/01 02:57:11;;;;;;;20.50;11.73;;;;;;;15.97;100.00;98574.38;5137227;28;20138;-64
2023/08/01 02:59:37;;;;;;;20.08;12.63;;;;;;;15.94;100.00;98576.00;5137796;27;20420;-64
2023/08/01 03:02:03;;;;;;;17.58;11.68;;;;;;;15.96;100.00;98572.78;5140543;28;20096;-63
2023/08/01 03:04:30;;;;;;;17.20;11.52;;;;;;;15.91;100.00;98574.06;5140418;28;20051;-64
2023/08/01 03:06:56;;;;;;;17.95;11.27;;;;;;;15.99;100.00;98571.97;5140666;27;20141;-64
2023/08/01 03:09:21;;;;;;;17.88;10.38;;;;;;;16.05;100.00;98572.28;5140716;28;20131;-64
2023/08/01 03:11:47;;;;;;;20.55;12.18;;;;;;;16.02;100.00;98576.66;5140904;28;20141;-66
2023/08/01 03:14:13;;;;;;;23.48;11.98;;;;;;;16.18;100.00;98579.59;5140820;28;20051;-64
2023/08/01 03:16:39;;;;;;;14.55;10.68;;;;;;;16.36;100.00;98592.38;5140817;28;20294;-63
2023/08/01 03:19:05;;;;;;;21.90;10.68;;;;;;;16.58;100.00;98596.41;5140418;28;20429;-62
2023/08/01 03:21:33;;;;;;;15.75;9.65;;;;;;;17.04;100.00;98627.34;5140822;28;20047;-63
2023/08/01 03:23:59;;;;;;;25.20;9.98;;;;;;;17.52;100.00;98665.66;5140271;28;20146;-62
2023/08/01 03:26:25;;;;;;;13.95;9.77;;;;;;;17.94;100.00;98727.13;5140493;28;20051;-65
2023/08/01 03:28:51;;;;;;;17.45;9.07;;;;;;;18.39;100.00;98784.09;5140487;28;20133;-65
2023/08/01 03:31:17;;;;;;;15.95;8.93;;;;;;;18.61;100.00;98824.13;5140089;28;20432;-64
2023/08/01 03:33:42;;;;;;;12.90;8.48;;;;;;;19.02;100.00;98820.09;5140253;28;20051;-63
2023/08/01 03:36:08;;;;;;;19.90;11.60;;;;;;;19.24;100.00;98782.31;5139865;27;20134;-64
2023/08/01 03:38:35;;;;;;;9.95;7.95;;;;;;;19.70;100.00;98733.16;5140464;28;20047;-63
2023/08/01 03:41:01;;;;;;;17.00;11.90;;;;;;;19.93;100.00;98653.47;5140200;28;20146;-64
2023/08/01 03:43:27;;;;;;;14.50;8.15;;;;;;;20.14;100.00;98569.38;5140413;28;20134;-62
2023/08/01 03:45:53;;;;;;;13.75;8.95;;;;;;;20.40;100.00;98453.25;5139947;28;20137;-64
2023/08/01 03:48:19;;;;;;;15.52;8.98;;;;;;;20.79;100.00;98311.09;5140240;28;20046;-65
2023/08/01 03:50:44;;;;;;;14.88;8.82;;;;;;;20.96;100.00;98175.94;5139849;28;20083;-65
2023/08/01 03:53:10;;;;;;;17.02;11.45;;;;;;;21.26;100.00;98154.00;5140286;28;20142;-66
2023/08/01 03:55:38;;;;;;;17.13;9.50;;;;;;;21.53;100.00;98028.59;5140032;28;20066;-65
2023/08/01 03:58:03;;;;;;;12.35;8.63;;;;;;;21.53;100.00;97889.19;5139667;28;20134;-65
2023/08/01 04:00:32;;;;;;;11.98;8.68;;;;;;;21.26;100.00;97942.16;5139987;28;20054;-65
2023/08/01 04:02:58;;;;;;;12.88;8.73;;;;;;;21.54;100.00;97981.97;5139861;28;20047;-66
2023/08/01 04:05:24;;;;;;;12.98;7.72;;;;;;;22.16;100.00;97766.59;5139982;28;20374;-67
2023/08/01 04:07:50;;;;;;;11.43;8.15;;;;;;;22.74;100.00;97621.88;5139667;27;20051;-62
2023/08/01 04:10:16;;;;;;;13.48;8.50;;;;;;;22.55;100.00;97551.50;5139964;28;20146;-65
2023/08/01 04:12:43;;;;;;;13.93;7.90;;;;;;;22.19;100.00;97592.59;5138508;27;20169;-66
2023/08/01 04:15:09;;;;;;;13.70;8.32;;;;;;;23.03;100.00;97470.16;5139872;28;20047;-66
2023/08/01 04:17:35;;;;;;;17.00;7.82;;;;;;;23.28;100.00;97407.13;5139405;28;20150;-66
2023/08/01 04:20:01;;;;;;;12.38;7.05;;;;;;;23.40;100.00;97368.88;5139903;28;20137;-66
2023/08/01 04:22:27;;;;;;;15.60;10.18;;;;;;;23.32;100.00;97390.91;5139338;28;20097;-62
2023/08/01 04:24:53;;;;;;;14.40;7.43;;;;;;;23.58;100.00;97367.75;5139294;28;20427;-62
2023/08/01 04:27:19;;;;;;;9.43;7.68;;;;;;;23.40;100.00;97358.47;5139271;28;20138;-60
2023/08/01 04:29:46;;;;;;;16.35;8.13;;;;;;;23.71;100.00;97359.75;5139290;28;20055;-60
2023/08/01 04:32:14;;;;;;;12.60;7.35;;;;;;;23.81;100.00;97330.31;5139356;28;20051;-64
2023/08/01 04:34:39;;;;;;;13.20;7.38;;;;;;;23.65;100.00;97337.28;5139327;28;20084;-61
2023/08/01 04:37:05;;;;;;;11.57;7.07;;;;;;;24.28;100.00;97338.44;5139342;27;20055;-60
2023/08/01 04:39:31;;;;;;;11.27;8.38;;;;;;;23.98;100.00;97338.03;5139256;28;20134;-62
2023/08/01 04:41:57;;;;;;;14.65;7.05;;;;;;;24.62;100.00;97331.75;5138909;28;20576;-63
2023/08/01 04:44:23;;;;;;;15.95;6.90;;;;;;;24.61;100.00;97335.03;5139090;28;20188;-63
2023/08/01 04:46:50;;;;;;;12.93;7.20;;;;;;;24.70;100.00;97337.63;5139379;28;20059;-65
2023/08/01 04:49:16;;;;;;;9.82;8.82;;;;;;;25.09;100.00;97345.34;5138900;28;20078;-63
2023/08/01 04:51:41;;;;;;;10.88;9.57;;;;;;;25.38;100.00;97355.34;5139291;28;20456;-65
2023/08/01 04:54:07;;;;;;;17.63;8.02;;;;;;;25.31;100.00;97378.28;5138963;28;20077;-65
2023/08/01 04:56:33;;;;;;;11.70;8.57;;;;;;;25.34;100.00;97368.88;5138846;28;20139;-65
2023/08/01 04:59:01;;;;;;;8.60;7.60;;;;;;;25.70;100.00;97367.09;5138645;28;20510;-65
2023/08/01 05:01:27;;;;;;;15.00;9.35;;;;;;;26.02;100.00;97457.44;5138598;28;20051;-64
2023/08/01 05:03:54;;;;;;;14.50;9.70;;;;;;;25.88;100.00;97426.81;5138876;28;20142;-64
2023/08/01 05:06:19;;;;;;;15.50;9.77;;;;;;;26.21;100.00;97446.44;5138617;27;20138;-64
2023/08/01 05:08:45;;;;;;;18.35;13.20;;;;;;;26.39;100.00;97480.88;5138684;28;20055;-68
2023/08/01 05:11:11;;;;;;;10.32;8.93;;;;;;;26.20;100.00;97430.09;5138457;28;20043;-67
2023/08/01 05:13:37;;;;;;;15.57;10.30;;;;;;;26.77;100.00;97513.03;5138561;28;20047;-69
2023/08/01 05:16:03;;;;;;;17.95;10.40;;;;;;;26.72;100.00;97544.72;5138244;28;20134;-68
2023/08/01 05:18:29;;;;;;;13.70;9.85;;;;;;;27.06;100.00;97539.78;5138890;28;20178;-67
2023/08/01 05:20:56;;;;;;;12.27;9.80;;;;;;;27.31;100.00;97660.94;5138351;28;20152;-61
2023/08/01 05:23:22;;;;;;;16.60;10.15;;;;;;;27.51;100.00;97646.56;5138218;27;20047;-61
2023/08/01 05:25:48;;;;;;;13.68;9.07;;;;;;;26.88;100.00;97631.06;5138548;28;20109;-64
2023/08/01 05:28:14;;;;;;;12.55;9.10;;;;;;;26.96;100.00;97687.56;5138083;28;20108;-62
2023/08/01 05:30:41;;;;;;;10.80;8.32;;;;;;;27.22;100.00;97743.56;5138444;28;20051;-61
2023/08/01 05:33:07;;;;;;;10.50;8.77;;;;;;;27.70;100.00;97705.88;5138182;28;20097;-64
2023/08/01 05:35:33;;;;;;;10.48;7.63;;;;;;;26.36;100.00;97772.06;5138208;28;20464;-64
2023/08/01 05:38:00;;;;;;;9.52;7.57;;;;;;;27.27;100.00;97781.44;5138044;27;20089;-65
2023/08/01 05:40:25;;;;;;;13.07;7.28;;;;;;;27.89;100.00;97867.38;5138225;28;20050;-60
2023/08/01 05:42:52;;;;;;;9.82;6.72;;;;;;;28.24;100.00;97897.00;5137676;28;20392;-61
2023/08/01 05:45:18;;;;;;;11.30;5.70;;;;;;;28.67;100.00;97901.50;5138337;28;20312;-60
2023/08/01 05:47:44;;;;;;;9.57;5.20;;;;;;;27.77;100.00;97902.44;5137763;28;20141;-67
2023/08/01 05:50:10;;;;;;;5.82;4.78;;;;;;;28.46;100.00;97952.56;5138133;28;20137;-62
2023/08/01 05:52:36;;;;;;;7.15;4.63;;;;;;;28.23;100.00;97926.47;5137412;28;20114;-67
2023/08/01 05:55:03;;;;;;;5.72;4.63;;;;;;;27.78;100.00;97939.81;5137857;28;20055;-66
2023/08/01 05:57:29;;;;;;;5.18;4.38;;;;;;;27.59;100.00;97900.09;5137790;28;20047;-63
2023/08/01 05:59:55;;;;;;;6.22;4.32;;;;;;;28.24;100.00;97953.34;5137827;28;20198;-63
2023/08/01 06:02:21;;;;;;;4.53;3.80;;;;;;;28.31;100.00;97989.47;5137822;28;20075;-58
2023/08/01 06:04:47;;;;;;;7.22;4.05;;;;;;;28.85;100.00;97996.78;5137538;28;20423;-60
2023/08/01 06:07:13;;;;;;;5.75;3.88;;;;;;;29.04;100.00;98030.88;5137643;27;20063;-63
2023/08/01 06:09:39;;;;;;;5.90;3.70;;;;;;;29.03;100.00;97989.84;5137446;28;20078;-63
2023/08/01 06:12:07;;;;;;;8.65;4.30;;;;;;;29.26;100.00;97954.56;5137634;28;20054;-61
2023/08/01 06:14:33;;;;;;;9.90;4.38;;;;;;;28.95;100.00;98034.69;5137521;28;20051;-64
2023/08/01 06:16:58;;;;;;;4.40;4.00;;;;;;;29.54;100.00;97993.91;5137693;28;20093;-63
2023/08/01 06:19:24;;;;;;;6.40;4.10;;;;;;;29.44;100.00;97978.56;5137275;28;20051;-62
2023/08/01 06:21:50;;;;;;;7.85;3.95;;;;;;;29.53;100.00;98017.78;5137666;28;20083;-61
2023/08/01 06:24:16;;;;;;;10.60;3.60;;;;;;;30.06;100.00;97961.19;5137325;28;20059;-61
2023/08/01 06:26:42;;;;;;;5.53;3.30;;;;;;;30.05;100.00;98033.13;5137415;28;20134;-62
2023/08/01 06:29:09;;;;;;;6.63;3.58;;;;;;;30.06;100.00;98045.19;5137373;28;20047;-64
2023/08/01 06:31:35;;;;;;;6.07;3.00;;;;;;;30.50;100.00;98082.91;5137249;28;20138;-63
2023/08/01 06:34:00;;;;;;;4.32;3.05;;;;;;;29.47;100.00;98109.47;5137579;27;20143;-65
2023/08/01 06:36:26;;;;;;;6.25;2.78;;;;;;;30.17;100.00;98108.06;5137018;27;20086;-69
2023/08/01 06:38:52;;;;;;;4.88;2.80;;;;;;;30.70;99.35;98134.16;5137309;28;20079;-66
2023/08/01 06:41:18;;;;;;;3.78;2.30;;;;;;;30.73;92.93;98134.41;5137026;28;20140;-66
2023/08/01 06:43:44;;;;;;;4.97;2.78;;;;;;;30.99;100.00;98129.03;5137394;28;20094;-62
2023/08/01 06:46:11;;;;;;;6.68;2.20;;;;;;;30.53;85.17;98142.00;5136885;28;20054;-62
2023/08/01 06:48:36;;;;;;;6.35;2.17;;;;;;;30.18;84.34;98151.22;5137326;28;20142;-64
2023/08/01 06:51:02;;;;;;;3.33;2.10;;;;;;;30.33;94.38;98139.59;5136826;28;20047;-62
2023/08/01 06:53:28;;;;;;;5.13;2.30;;;;;;;30.31;100.00;98120.31;5136690;28;20043;-58
2023/08/01 06:55:54;;;;;;;5.50;2.42;;;;;;;29.60;100.00;98123.81;5136969;28;20051;-57
2023/08/01 06:58:20;;;;;;;5.85;2.40;;;;;;;29.01;100.00;98100.38;5136733;28;20312;-59
2023/08/01 07:00:46;;;;;;;4.22;1.95;;;;;;;28.83;100.00;98115.03;5136838;28;20475;-60
2023/08/01 07:03:12;;;;;;;3.28;2.40;;;;;;;29.24;100.00;98091.84;5136981;28;20078;-61
2023/08/01 07:05:38;;;;;;;6.30;2.50;;;;;;;29.09;100.00;98086.53;5137480;28;20146;-59
2023/08/01 07:08:04;;;;;;;8.02;2.80;;;;;;;29.10;100.00;98107.03;5137079;27;20046;-61
2023/08/01 07:10:34;;;;;;;5.72;2.40;;;;;;;29.92;100.00;98090.22;5137216;28;20055;-63
2023/08/01 07:13:03;;;;;;;4.30;2.25;;;;;;;30.65;87.36;98139.84;5136893;28;20153;-56
2023/08/01 07:15:29;;;;;;;3.33;1.92;;;;;;;31.31;88.22;98151.06;5137018;28;20051;-59
2023/08/01 07:17:55;;;;;;;7.25;3.38;;;;;;;31.76;89.01;98147.72;5136468;28;20069;-65
2023/08/01 07:20:21;;;;;;;18.20;3.60;;;;;;;31.58;97.73;98132.22;5137008;28;20082;-64
2023/08/01 07:22:47;;;;;;;3.72;2.65;;;;;;;31.32;90.75;98144.91;5136448;28;20142;-65
2023/08/01 07:25:13;;;;;;;9.35;2.47;;;;;;;31.87;81.86;98158.91;5136340;28;20057;-65
2023/08/01 07:27:39;;;;;;;6.43;2.97;;;;;;;31.70;85.62;98147.78;5136663;28;20137;-67
2023/08/01 07:30:07;;;;;;;6.53;3.00;;;;;;;31.01;83.03;98153.94;5136694;28;20452;-62
2023/08/01 07:32:32;;;;;;;10.48;3.33;;;;;;;31.69;83.16;98162.47;5136795;28;20051;-67
2023/08/01 07:34:58;;;;;;;8.25;3.40;;;;;;;31.55;86.41;98139.72;5136379;28;20137;-70
2023/08/01 07:37:28;;;;;;;5.53;3.65;;;;;;;31.29;86.88;98151.59;5136038;27;20082;-68
2023/08/01 07:39:54;;;;;;;5.50;3.17;;;;;;;31.59;81.31;98145.88;5136289;28;20058;-62
2023/08/01 07:42:20;;;;;;;11.63;3.35;;;;;;;31.46;94.62;98137.28;5136543;28;20107;-62
2023/08/01 07:44:45;;;;;;;5.97;2.78;;;;;;;31.65;91.08;98140.13;5136151;28;20219;-66
2023/08/01 07:47:11;;;;;;;8.38;3.00;;;;;;;31.45;89.57;98143.47;5139244;27;20378;-65
2023/08/01 07:49:37;;;;;;;9.82;2.80;;;;;;;31.08;88.21;98144.88;5139631;28;20051;-68
2023/08/01 07:52:04;;;;;;;2.97;2.30;;;;;;;31.66;92.78;98133.16;5139905;28;20073;-69
2023/08/01 07:54:31;;;;;;;12.98;2.85;;;;;;;32.48;88.59;98134.59;5139824;28;20137;-69
2023/08/01 07:56:56;;;;;;;8.50;4.38;;;;;;;32.58;91.69;98130.03;5139603;28;20055;-69
2023/08/01 07:59:22;;;;;;;7.53;3.13;;;;;;;32.16;84.95;98137.41;5139557;28;20142;-65
2023/08/01 08:01:48;;;;;;;10.63;2.95;;;;;;;32.90;83.21;98129.25;5139616;28;20047;-60
2023/08/01 08:04:14;;;;;;;6.53;2.83;;;;;;;33.11;82.47;98132.22;5139614;28;20428;-62
2023/08/01 08:06:40;;;;;;;5.10;2.70;;;;;;;32.64;85.17;98126.34;5139409;27;20082;-61
2023/08/01 08:09:06;;;;;;;9.40;4.05;;;;;;;33.11;88.74;98125.78;5139774;28;20051;-63
2023/08/01 08:11:33;;;;;;;11.38;3.60;;;;;;;32.84;87.62;98119.28;5139438;28;20059;-66
2023/08/01 08:13:59;;;;;;;17.98;4.03;;;;;;;31.83;87.91;98130.09;5139792;28;20137;-69
2023/08/01 08:16:25;;;;;;;5.45;2.88;;;;;;;32.34;90.15;98122.41;5139179;28;20412;-64
2023/08/01 08:18:51;;;;;;;3.55;3.25;;;;;;;32.25;86.91;98124.88;5139656;28;20463;-63
2023/08/01 08:21:17;;;;;;;8.70;3.17;;;;;;;31.18;88.38;98127.00;5139538;28;20107;-62
2023/08/01 08:23:43;;;;;;;7.03;2.80;;;;;;;31.48;88.42;98119.75;5139144;28;20055;-62
2023/08/01 08:26:09;;;;;;;8.25;3.42;;;;;;;32.54;78.41;98128.84;5139453;28;20103;-61
2023/08/01 08:28:35;;;;;;;4.53;2.60;;;;;;;32.69;77.40;98128.31;5139007;28;20123;-62
2023/08/01 08:31:02;;;;;;;4.15;3.20;;;;;;;32.50;84.37;98122.72;5139250;28;20423;-65
2023/08/01 08:33:29;;;;;;;3.05;2.75;;;;;;;32.89;81.64;98115.56;5139189;28;20066;-61
2023/08/01 08:35:55;;;;;;;4.03;2.83;;;;;;;32.40;91.52;98118.72;5139126;28;20043;-64
2023/08/01 08:38:20;;;;;;;8.75;3.50;;;;;;;29.48;99.27;98099.69;5138820;27;20058;-64
2023/08/01 08:40:56;;;;;;;6.60;3.40;;;;;;;31.48;92.79;98108.41;5139306;28;20147;-59
2023/08/01 08:43:23;;;;;;;6.95;2.80;;;;;;;31.65;86.96;98114.63;5138878;28;20055;-62
2023/08/01 08:45:52;;;;;;;6.32;3.38;;;;;;;29.84;100.00;98097.75;5139262;28;20142;-63
2023/08/01 08:48:19;;;;;;;9.13;2.47;;;;;;;30.41;96.60;98101.72;5138917;28;20401;-64
2023/08/01 08:50:46;;;;;;;5.97;2.92;;;;;;;31.03;96.44;98104.03;5139313;28;20405;-59
2023/08/01 08:53:12;;;;;;;6.85;2.78;;;;;;;29.54;100.00;98092.75;5138890;28;20093;-64
2023/08/01 08:55:39;;;;;;;4.65;2.65;;;;;;;30.70;94.71;98099.44;5138867;28;20076;-62
2023/08/01 08:58:05;;;;;;;6.00;2.90;;;;;;;31.59;91.92;98094.88;5137904;27;20051;-64
2023/08/01 09:00:31;;;;;;;8.73;2.88;;;;;;;31.50;96.87;98100.91;5138501;28;20397;-61
2023/08/01 09:02:58;;;;;;;7.70;2.83;;;;;;;30.27;99.72;98091.56;5138804;28;20130;-66
2023/08/01 09:05:32;;;;;;;4.38;3.00;;;;;;;30.55;91.52;98096.22;5138443;28;20046;-65
2023/08/01 09:08:04;;;;;;;7.13;3.00;;;;;;;29.91;100.00;98056.88;5138752;27;20051;-61
2023/08/01 09:10:31;;;;;;;4.75;2.50;;;;;;;30.48;100.00;98063.63;5138469;28;20051;-66
2023/08/01 09:12:57;;;;;;;6.50;3.55;;;;;;;29.76;100.00;98062.88;5138353;28;20167;-64
2023/08/01 09:15:26;;;;;;;8.38;4.18;;;;;;;29.13;100.00;98058.03;5138666;28;20061;-66
2023/08/01 09:17:56;;;;;;;7.63;6.70;;;;;;;30.78;100.00;98066.44;5138228;28;20059;-62
2023/08/01 09:20:22;;;;;;;7.78;4.15;;;;;;;30.69;100.00;98072.41;5138290;28;20405;-65
2023/08/01 09:22:48;;;;;;;5.15;3.42;;;;;;;30.67;97.36;98064.47;5138101;28;20103;-63
2023/08/01 09:25:14;;;;;;;4.68;2.95;;;;;;;31.21;95.48;98065.72;5138227;28;20426;-65
2023/08/01 09:27:40;;;;;;;5.30;2.63;;;;;;;30.38;94.06;98063.19;5138275;28;20055;-65
2023/08/01 09:30:10;;;;;;;4.43;3.00;;;;;;;30.17;98.92;98062.06;5138379;28;20391;-62
2023/08/01 09:32:36;;;;;;;6.43;2.50;;;;;;;28.26;100.00;98043.78;5138123;28;20088;-60
2023/08/01 09:35:03;;;;;;;3.40;2.45;;;;;;;28.22;100.00;98015.09;5138496;28;20398;-59
2023/08/01 09:37:39;;;;;;;2.95;2.30;;;;;;;28.45;100.00;98023.56;5137766;27;20100;-61
2023/08/01 09:40:07;;;;;;;6.03;2.47;;;;;;;30.01;100.00;98038.31;5138092;28;20047;-59
2023/08/01 09:42:38;;;;;;;5.78;2.72;;;;;;;30.53;100.00;98045.09;5137876;28;20142;-63
2023/08/01 09:45:11;;;;;;;4.85;2.80;;;;;;;29.89;100.00;98040.47;5137994;28;20403;-59
2023/08/01 09:47:37;;;;;;;4.70;2.28;;;;;;;30.14;100.00;98043.34;5138200;28;20059;-63
2023/08/01 09:50:04;;;;;;;5.07;2.55;;;;;;;31.22;99.11;98043.84;5137995;28;20356;-61
2023/08/01 09:52:30;;;;;;;2.70;2.50;;;;;;;29.17;91.11;98055.69;5138140;28;20375;-64
2023/08/01 09:54:56;;;;;;;5.88;2.33;;;;;;;31.04;87.52;98048.16;5137793;28;20111;-57
2023/08/01 09:57:26;;;;;;;4.30;2.60;;;;;;;30.73;90.48;98052.34;5138066;28;20168;-59
2023/08/01 09:59:52;;;;;;;2.58;2.20;;;;;;;30.73;87.77;98055.94;5137616;28;20047;-59
2023/08/01 10:02:22;;;;;;;3.58;2.08;;;;;;;29.73;93.22;98044.16;5138085;28;20050;-63
2023/08/01 10:04:48;;;;;;;7.28;2.40;;;;;;;29.96;96.52;98036.28;5137816;28;20328;-63
2023/08/01 10:07:15;;;;;;;2.72;2.00;;;;;;;30.30;89.02;98042.47;5137244;27;20133;-60
2023/08/01 10:09:41;;;;;;;3.17;2.35;;;;;;;29.24;99.60;98027.69;5136380;27;20392;-62
2023/08/01 10:12:13;;;;;;;2.80;2.60;;;;;;;29.81;100.00;98022.53;5137253;28;20441;-61
2023/08/01 10:14:39;;;;;;;4.22;2.47;;;;;;;30.61;97.38;98035.47;5137457;28;20083;-59
2023/08/01 10:17:06;;;;;;;2.90;2.55;;;;;;;30.06;99.02;98028.22;5137238;28;20464;-60
2023/08/01 10:19:33;;;;;;;5.20;2.28;;;;;;;29.96;100.00;98017.28;5137475;28;20047;-61
2023/08/01 10:22:00;;;;;;;3.85;2.28;;;;;;;30.07;96.34;98022.06;5137330;28;20046;-59
2023/08/01 10:24:27;;;;;;;5.85;2.30;;;;;;;30.32;89.82;98022.91;5137654;28;20247;-63
2023/08/01 10:26:53;;;;;;;5.25;2.30;;;;;;;30.18;97.94;98007.06;5137128;28;20055;-62
2023/08/01 10:29:20;;;;;;;4.22;2.47;;;;;;;31.29;93.07;98015.69;5137620;28;20093;-63
2023/08/01 10:31:52;;;;;;;3.40;2.33;;;;;;;30.09;96.11;98015.88;5137163;28;20065;-63
2023/08/01 10:34:19;;;;;;;4.30;2.38;;;;;;;29.92;100.00;98001.88;5137362;28;20050;-61
2023/08/01 10:36:54;;;;;;;2.42;2.20;;;;;;;29.69;95.27;98010.53;5137211;27;20373;-63
2023/08/01 10:39:22;;;;;;;2.83;2.55;;;;;;;30.77;98.32;97997.03;5136996;28;20147;-61
2023/08/01 10:41:57;;;;;;;4.38;2.88;;;;;;;29.52;100.00;97976.75;5137177;28;20051;-61
2023/08/01 10:44:23;;;;;;;3.95;2.20;;;;;;;28.98;100.00;97970.84;5136894;28;20055;-59
2023/08/01 10:46:53;;;;;;;5.45;2.60;;;;;;;29.17;100.00;97960.53;5137244;28;20369;-58
2023/08/01 10:49:21;;;;;;;6.05;2.92;;;;;;;28.46;100.00;97923.59;5136872;28;20409;-60
2023/08/01 10:51:47;;;;;;;3.03;2.83;;;;;;;29.24;100.00;97947.91;5137329;28;20342;-59
2023/08/01 10:54:23;;;;;;;2.60;2.40;;;;;;;29.72;100.00;97961.47;5136987;28;20055;-63
2023/08/01 10:56:52;;;;;;;3.50;2.35;;;;;;;30.44;100.00;97976.25;5136625;28;20416;-61
2023/08/01 10:59:18;;;;;;;4.68;2.50;;;;;;;30.75;100.00;97970.53;5137006;28;20046;-62
2023/08/01 11:01:47;;;;;;;4.10;2.60;;;;;;;29.14;100.00;97952.34;5136784;28;20146;-58
2023/08/01 11:04:14;;;;;;;2.55;2.35;;;;;;;28.09;100.00;97935.94;5137087;28;20130;-61
2023/08/01 11:06:44;;;;;;;4.47;2.67;;;;;;;28.61;100.00;97924.84;5136701;27;20164;-62
2023/08/01 11:09:16;;;;;;;2.92;2.63;;;;;;;29.02;100.00;97937.50;5136854;28;20331;-60
2023/08/01 11:11:42;;;;;;;5.03;2.50;;;;;;;28.82;100.00;97949.88;5136679;28;20126;-59
2023/08/01 11:14:08;;;;;;;16.73;2.55;;;;;;;29.57;100.00;97954.63;5136920;28;20116;-63
2023/08/01 11:16:37;;;;;;;11.00;7.18;;;;;;;28.91;100.00;97946.75;5136669;28;20083;-68